Paganini — V2CL8 — position and weather

sailwx.info

Track history (hours):
 
Tides and Currents Weather Stations Pressure Air Temp Water Temp Dewpoint Dewpoint Depression Visibility Wind Speed Wind Dir Waves Ship Positions

Paganini

Last reported at 2017-Dec-14 16:29 UTC. Time now 2017-Dec-18 14:59 UTC.
Position N 35°56' W 005°15'.

Length 90 m; draft 5.9 m.

Type: Cargo ship. MMSI: 305040000.

Date/timePositionNaut miles runAvg speedWind from/ knotsBaromVisibWave heightAir tempDewpointWater temp
2017-Dec-14 16:29N 35°56' W 005°15'3 7.2
2017-Dec-14 16:00N 35°54' W 005°19'0 0.5
2017-Dec-14 15:00N 35°54' W 005°19'0 0.0
2017-Dec-14 14:30N 35°54' W 005°19'0 0.0
2017-Dec-14 14:00N 35°54' W 005°19'0 0.0
2017-Dec-14 13:30N 35°54' W 005°19'0 0.0
2017-Dec-14 13:00N 35°54' W 005°19'0 0.0
2017-Dec-14 12:30N 35°54' W 005°19'0 0.0
2017-Dec-14 12:00N 35°54' W 005°19'0 0.0
2017-Dec-14 11:30N 35°54' W 005°19'0 0.0
2017-Dec-14 11:00N 35°54' W 005°19'1 1.1
2017-Dec-14 10:30N 35°54' W 005°19'1 2.6
2017-Dec-14 10:00N 35°55' W 005°18'3 5.1
2017-Dec-14 09:30N 35°56' W 005°21'4 8.5
2017-Dec-14 09:00N 35°57' W 005°26'261 8.2
2017-Dec-13 01:22N 38°20' W 010°00'3 9.2
2017-Dec-13 01:00N 38°23' W 010°01'5 9.4
2017-Dec-13 00:28N 38°28' W 010°03'4 9.2
2017-Dec-13 00:00N 38°32' W 010°04'5 9.2
2017-Dec-12 23:30N 38°36' W 010°06'5 9.3
2017-Dec-12 22:59N 38°41' W 010°07'5 9.5
2017-Dec-12 22:30N 38°46' W 010°07'5 9.8
2017-Dec-12 22:00N 38°50' W 010°07'5 9.8
2017-Dec-12 21:30N 38°55' W 010°07'5 9.2
2017-Dec-12 21:00N 38°60' W 010°07'5 9.6
2017-Dec-12 20:30N 39°05' W 010°07'5 9.3
2017-Dec-12 20:00N 39°09' W 010°07'  
2017-Dec-09 02:12N 49°44' W 003°36'7 8.2
2017-Dec-09 01:22N 49°48' W 003°28'3 7.5
2017-Dec-09 00:57N 49°50' W 003°23'3 6.9
2017-Dec-09 00:30N 49°51' W 003°19'3 6.6
2017-Dec-09 00:00N 49°53' W 003°15'3 6.1
2017-Dec-08 23:30N 49°54' W 003°11'3 6.0
2017-Dec-08 23:00N 49°55' W 003°06'3 5.8
2017-Dec-08 22:30N 49°57' W 003°02'3 5.8
2017-Dec-08 22:00N 49°58' W 002°58'3 5.9
2017-Dec-08 21:30N 49°60' W 002°54'3 5.9
2017-Dec-08 21:01N 50°01' W 002°50'3 6.2
2017-Dec-08 20:30N 50°02' W 002°46'3 6.3
2017-Dec-08 20:00N 50°03' W 002°41'31 8.2
2017-Dec-08 16:16N 50°11' W 001°55'3 9.0
2017-Dec-08 15:59N 50°12' W 001°51'72 5.5
2017-Dec-08 02:48N 50°32' W 000°02'3 7.2
2017-Dec-08 02:24N 50°33' E 000°02'3 6.8
2017-Dec-08 01:57N 50°33' E 000°07'4 6.5
2017-Dec-08 01:25N 50°34' E 000°12'3 6.0
2017-Dec-08 00:59N 50°35' E 000°16'3 5.5
2017-Dec-08 00:30N 50°36' E 000°20'3 5.1
2017-Dec-08 00:00N 50°36' E 000°24'3 5.1
2017-Dec-07 23:30N 50°37' E 000°28'3 5.3
2017-Dec-07 23:00N 50°38' E 000°32'3 5.8
2017-Dec-07 22:30N 50°39' E 000°36'3 6.8
2017-Dec-07 22:00N 50°41' E 000°40'4 7.8
2017-Dec-07 21:31N 50°43' E 000°45'4 8.9
2017-Dec-07 21:00N 50°46' E 000°51'5 9.4
2017-Dec-07 20:30N 50°49' E 000°57'5 9.6
2017-Dec-07 19:56N 50°52' E 001°04'4 9.6
2017-Dec-07 19:30N 50°55' E 001°09'5 9.3
2017-Dec-07 19:00N 50°58' E 001°15'4 8.8
2017-Dec-07 18:30N 51°00' E 001°20'4 7.9
2017-Dec-07 18:00N 51°03' E 001°25'4 7.3
2017-Dec-07 17:30N 51°05' E 001°29'3 6.3
2017-Dec-07 17:00N 51°07' E 001°33'3 5.3
2017-Dec-07 16:30N 51°09' E 001°36'2 4.5
2017-Dec-07 16:00N 51°10' E 001°39'2 4.0
2017-Dec-07 15:30N 51°12' E 001°41'2 3.7
2017-Dec-07 15:01N 51°13' E 001°44'2 3.3
2017-Dec-07 14:31N 51°14' E 001°45'1 2.4
2017-Dec-07 14:00N 51°15' E 001°46'1 2.1
2017-Dec-07 13:30N 51°16' E 001°47'1 2.7
2017-Dec-07 13:01N 51°17' E 001°48'2 3.4
2017-Dec-07 12:31N 51°19' E 001°49'2 4.5
2017-Dec-07 12:01N 51°21' E 001°51'3 5.7
2017-Dec-07 11:30N 51°23' E 001°53'3 6.6
2017-Dec-07 11:00N 51°26' E 001°56'3 7.0
2017-Dec-07 10:30N 51°29' E 001°59'4 7.1
2017-Dec-07 10:00N 51°32' E 002°03'3 6.2
2017-Dec-07 09:31N 51°34' E 002°06'3 5.8
2017-Dec-07 08:59N 51°37' E 002°09'3 5.6
2017-Dec-07 08:28N 51°39' E 002°12'8 4.5
2017-Dec-07 06:43N 51°45' E 002°21'29 4.1
2017-Dec-06 23:41N 52°02' E 002°58'1 6.7
2017-Dec-06 23:30N 52°02' E 003°00'4 7.0
2017-Dec-06 22:56N 52°02' E 003°07'3 7.4
2017-Dec-06 22:30N 52°03' E 003°12'4 7.2
2017-Dec-06 22:00N 52°03' E 003°18'4 7.4
2017-Dec-06 21:29N 52°03' E 003°24'4 7.8
2017-Dec-06 21:00N 52°03' E 003°30'  
Track history (hours):
 
Tides and Currents Weather Stations Pressure Air Temp Water Temp Dewpoint Dewpoint Depression Visibility Wind Speed Wind Dir Waves Ship Positions

Paganini

Last reported at 2017-Dec-14 16:29 UTC. Time now 2017-Dec-18 14:59 UTC.
Position N 35°56' W 005°15'.

Length 90 m; draft 5.9 m.

Type: Cargo ship. MMSI: 305040000.

Date/timePositionNaut miles runAvg speedWind from/ knotsBaromVisibWave heightAir tempDewpointWater temp
2017-Dec-14 16:29N 35°56' W 005°15'3 7.2
2017-Dec-14 16:00N 35°54' W 005°19'0 0.5
2017-Dec-14 15:00N 35°54' W 005°19'0 0.0
2017-Dec-14 14:30N 35°54' W 005°19'0 0.0
2017-Dec-14 14:00N 35°54' W 005°19'0 0.0
2017-Dec-14 13:30N 35°54' W 005°19'0 0.0
2017-Dec-14 13:00N 35°54' W 005°19'0 0.0
2017-Dec-14 12:30N 35°54' W 005°19'0 0.0
2017-Dec-14 12:00N 35°54' W 005°19'0 0.0
2017-Dec-14 11:30N 35°54' W 005°19'0 0.0
2017-Dec-14 11:00N 35°54' W 005°19'1 1.1
2017-Dec-14 10:30N 35°54' W 005°19'1 2.6
2017-Dec-14 10:00N 35°55' W 005°18'3 5.1
2017-Dec-14 09:30N 35°56' W 005°21'4 8.5
2017-Dec-14 09:00N 35°57' W 005°26'261 8.2
2017-Dec-13 01:22N 38°20' W 010°00'3 9.2
2017-Dec-13 01:00N 38°23' W 010°01'5 9.4
2017-Dec-13 00:28N 38°28' W 010°03'4 9.2
2017-Dec-13 00:00N 38°32' W 010°04'5 9.2
2017-Dec-12 23:30N 38°36' W 010°06'5 9.3
2017-Dec-12 22:59N 38°41' W 010°07'5 9.5
2017-Dec-12 22:30N 38°46' W 010°07'5 9.8
2017-Dec-12 22:00N 38°50' W 010°07'5 9.8
2017-Dec-12 21:30N 38°55' W 010°07'5 9.2
2017-Dec-12 21:00N 38°60' W 010°07'5 9.6
2017-Dec-12 20:30N 39°05' W 010°07'5 9.3
2017-Dec-12 20:00N 39°09' W 010°07'  
2017-Dec-09 02:12N 49°44' W 003°36'7 8.2
2017-Dec-09 01:22N 49°48' W 003°28'3 7.5
2017-Dec-09 00:57N 49°50' W 003°23'3 6.9
2017-Dec-09 00:30N 49°51' W 003°19'3 6.6
2017-Dec-09 00:00N 49°53' W 003°15'3 6.1
2017-Dec-08 23:30N 49°54' W 003°11'3 6.0
2017-Dec-08 23:00N 49°55' W 003°06'3 5.8
2017-Dec-08 22:30N 49°57' W 003°02'3 5.8
2017-Dec-08 22:00N 49°58' W 002°58'3 5.9
2017-Dec-08 21:30N 49°60' W 002°54'3 5.9
2017-Dec-08 21:01N 50°01' W 002°50'3 6.2
2017-Dec-08 20:30N 50°02' W 002°46'3 6.3
2017-Dec-08 20:00N 50°03' W 002°41'31 8.2
2017-Dec-08 16:16N 50°11' W 001°55'3 9.0
2017-Dec-08 15:59N 50°12' W 001°51'72 5.5
2017-Dec-08 02:48N 50°32' W 000°02'3 7.2
2017-Dec-08 02:24N 50°33' E 000°02'3 6.8
2017-Dec-08 01:57N 50°33' E 000°07'4 6.5
2017-Dec-08 01:25N 50°34' E 000°12'3 6.0
2017-Dec-08 00:59N 50°35' E 000°16'3 5.5
2017-Dec-08 00:30N 50°36' E 000°20'3 5.1
2017-Dec-08 00:00N 50°36' E 000°24'3 5.1
2017-Dec-07 23:30N 50°37' E 000°28'3 5.3
2017-Dec-07 23:00N 50°38' E 000°32'3 5.8
2017-Dec-07 22:30N 50°39' E 000°36'3 6.8
2017-Dec-07 22:00N 50°41' E 000°40'4 7.8
2017-Dec-07 21:31N 50°43' E 000°45'4 8.9
2017-Dec-07 21:00N 50°46' E 000°51'5 9.4
2017-Dec-07 20:30N 50°49' E 000°57'5 9.6
2017-Dec-07 19:56N 50°52' E 001°04'4 9.6
2017-Dec-07 19:30N 50°55' E 001°09'5 9.3
2017-Dec-07 19:00N 50°58' E 001°15'4 8.8
2017-Dec-07 18:30N 51°00' E 001°20'4 7.9
2017-Dec-07 18:00N 51°03' E 001°25'4 7.3
2017-Dec-07 17:30N 51°05' E 001°29'3 6.3
2017-Dec-07 17:00N 51°07' E 001°33'3 5.3
2017-Dec-07 16:30N 51°09' E 001°36'2 4.5
2017-Dec-07 16:00N 51°10' E 001°39'2 4.0
2017-Dec-07 15:30N 51°12' E 001°41'2 3.7
2017-Dec-07 15:01N 51°13' E 001°44'2 3.3
2017-Dec-07 14:31N 51°14' E 001°45'1 2.4
2017-Dec-07 14:00N 51°15' E 001°46'1 2.1
2017-Dec-07 13:30N 51°16' E 001°47'1 2.7
2017-Dec-07 13:01N 51°17' E 001°48'2 3.4
2017-Dec-07 12:31N 51°19' E 001°49'2 4.5
2017-Dec-07 12:01N 51°21' E 001°51'3 5.7
2017-Dec-07 11:30N 51°23' E 001°53'3 6.6
2017-Dec-07 11:00N 51°26' E 001°56'3 7.0
2017-Dec-07 10:30N 51°29' E 001°59'4 7.1
2017-Dec-07 10:00N 51°32' E 002°03'3 6.2
2017-Dec-07 09:31N 51°34' E 002°06'3 5.8
2017-Dec-07 08:59N 51°37' E 002°09'3 5.6
2017-Dec-07 08:28N 51°39' E 002°12'8 4.5
2017-Dec-07 06:43N 51°45' E 002°21'29 4.1
2017-Dec-06 23:41N 52°02' E 002°58'1 6.7
2017-Dec-06 23:30N 52°02' E 003°00'4 7.0
2017-Dec-06 22:56N 52°02' E 003°07'3 7.4
2017-Dec-06 22:30N 52°03' E 003°12'4 7.2
2017-Dec-06 22:00N 52°03' E 003°18'4 7.4
2017-Dec-06 21:29N 52°03' E 003°24'4 7.8
2017-Dec-06 21:00N 52°03' E 003°30'  

Dump ship's entire track history